Time;durP1;ratioP1;P1;durP2;ratioP2;P2;SDS_P1;SDS_P2;PMS_P1;PMS_P2;Temp;Humidity;BMP_temperature;BMP_pressure;BME280_temperature;BME280_humidity;BME280_pressure;Samples;Min_cycle;Max_cycle;Signal;HPM_P1;HPM_P2
2023/07/15 00:01:32;;;;;;;6.22;4.53;;;26.80;82.50;;;;;;5005340;28;20423;-95
2023/07/15 00:04:09;;;;;;;8.00;4.53;;;26.80;83.10;;;;;;4978270;28;20418;-96
2023/07/15 00:06:50;;;;;;;5.70;4.43;;;26.70;82.30;;;;;;5007929;28;20934;-96
2023/07/15 00:09:25;;;;;;;5.97;4.50;;;26.80;81.90;;;;;;4994166;28;20450;-95
2023/07/15 00:11:53;;;;;;;5.32;4.38;;;26.70;81.70;;;;;;4993824;28;20430;-95
2023/07/15 00:14:32;;;;;;;10.35;4.68;;;26.70;81.80;;;;;;4990489;28;20418;-95
2023/07/15 00:17:09;;;;;;;5.75;4.38;;;26.80;81.40;;;;;;4992062;28;20504;-95
2023/07/15 00:19:36;;;;;;;5.82;4.50;;;26.80;81.50;;;;;;5008045;28;20423;-94
2023/07/15 00:22:05;;;;;;;6.22;4.50;;;26.80;81.10;;;;;;4990992;28;20561;-96
2023/07/15 00:24:34;;;;;;;4.97;4.47;;;26.80;81.10;;;;;;4992406;28;20417;-94
2023/07/15 00:27:05;;;;;;;4.70;4.20;;;26.90;80.90;;;;;;5006662;28;20694;-95
2023/07/15 00:29:33;;;;;;;9.07;4.38;;;26.80;80.90;;;;;;4977184;28;20443;-95
2023/07/15 00:32:04;;;;;;;6.05;4.30;;;26.90;79.90;;;;;;5009257;28;20424;-95
2023/07/15 00:34:34;;;;;;;5.53;4.40;;;26.90;80.00;;;;;;5009878;28;20445;-95
2023/07/15 00:37:07;;;;;;;5.57;4.30;;;26.90;80.00;;;;;;4994344;28;20496;-93
2023/07/15 00:39:35;;;;;;;5.55;4.38;;;26.90;79.20;;;;;;4993998;28;20509;-95
2023/07/15 00:42:22;;;;;;;6.88;4.30;;;26.90;79.00;;;;;;5004822;28;20427;-96
2023/07/15 00:44:58;;;;;;;5.90;4.30;;;26.90;79.20;;;;;;4998985;28;20522;-94
2023/07/15 00:47:45;;;;;;;7.97;4.25;;;27.00;78.70;;;;;;5000704;28;20438;-95
2023/07/15 00:50:21;;;;;;;6.45;4.32;;;27.00;78.80;;;;;;4988723;28;20422;-96
2023/07/15 00:52:52;;;;;;;6.78;4.13;;;27.00;78.20;;;;;;5006909;28;20502;-95
2023/07/15 00:55:22;;;;;;;7.20;4.57;;;27.00;78.30;;;;;;5007406;28;20444;-96
2023/07/15 00:57:52;;;;;;;4.90;4.10;;;27.00;78.40;;;;;;5007657;28;20414;-94
2023/07/15 01:00:23;;;;;;;5.28;4.25;;;27.00;78.50;;;;;;5021567;28;20457;-93
2023/07/15 01:02:50;;;;;;;5.60;4.07;;;26.90;78.50;;;;;;4991153;28;20466;-96
2023/07/15 01:05:23;;;;;;;5.93;4.30;;;26.90;78.10;;;;;;4990278;28;20411;-94
2023/07/15 01:07:53;;;;;;;5.38;4.30;;;26.90;78.00;;;;;;4990595;28;20410;-95
2023/07/15 01:10:22;;;;;;;5.50;4.30;;;26.90;77.70;;;;;;4977349;28;20459;-96
2023/07/15 01:12:52;;;;;;;5.55;4.40;;;26.90;77.50;;;;;;4988515;28;20423;-96
2023/07/15 01:15:22;;;;;;;5.43;4.18;;;26.90;77.60;;;;;;5005000;28;20418;-94
2023/07/15 01:17:49;;;;;;;4.95;4.18;;;26.90;77.50;;;;;;5016772;28;20430;-96
2023/07/15 01:20:24;;;;;;;4.87;4.13;;;26.90;77.50;;;;;;4969451;28;20413;-95
2023/07/15 01:22:55;;;;;;;4.90;4.03;;;26.90;77.50;;;;;;5008398;28;20418;-95
2023/07/15 01:25:22;;;;;;;6.60;4.40;;;26.90;77.50;;;;;;4980388;28;20414;-95
2023/07/15 01:27:49;;;;;;;4.75;4.15;;;26.90;77.70;;;;;;4949507;28;20534;-95
2023/07/15 01:30:20;;;;;;;5.50;4.25;;;26.80;77.70;;;;;;4948271;28;20464;-95
2023/07/15 01:32:48;;;;;;;5.10;4.20;;;26.80;77.70;;;;;;4956069;28;20433;-95
2023/07/15 01:35:16;;;;;;;5.10;4.30;;;26.80;77.70;;;;;;4979257;28;20930;-95
2023/07/15 01:37:47;;;;;;;8.90;4.05;;;26.80;77.70;;;;;;4980091;28;20449;-95
2023/07/15 01:40:17;;;;;;;6.38;4.13;;;26.80;78.50;;;;;;4952500;28;20454;-96
2023/07/15 01:42:44;;;;;;;5.07;4.40;;;26.80;77.90;;;;;;4972725;28;20418;-95
2023/07/15 01:45:11;;;;;;;6.97;4.53;;;26.80;77.70;;;;;;4927952;28;20502;-95
2023/07/15 01:47:54;;;;;;;6.07;4.50;;;26.80;77.90;;;;;;4938243;28;20418;-95
2023/07/15 01:50:21;;;;;;;6.72;4.70;;;26.90;78.20;;;;;;4948139;28;20511;-96
2023/07/15 01:52:55;;;;;;;6.82;4.57;;;26.90;78.50;;;;;;4962446;28;21296;-96
2023/07/15 01:55:41;;;;;;;7.72;4.40;;;27.00;78.80;;;;;;4981210;28;20434;-95
2023/07/15 01:58:09;;;;;;;5.75;4.80;;;26.90;79.20;;;;;;5010290;28;20490;-95
2023/07/15 02:00:39;;;;;;;6.75;4.63;;;26.90;80.40;;;;;;5013026;28;20415;-94
2023/07/15 02:03:06;;;;;;;6.32;4.80;;;26.90;80.40;;;;;;4990173;28;20420;-94
2023/07/15 02:05:35;;;;;;;7.38;4.40;;;26.90;81.30;;;;;;5008326;28;21211;-96
2023/07/15 02:08:03;;;;;;;6.95;4.85;;;26.80;81.30;;;;;;4994856;28;20753;-95
2023/07/15 02:10:36;;;;;;;5.70;4.70;;;26.80;81.70;;;;;;4999920;28;20507;-96
2023/07/15 02:13:11;;;;;;;6.35;4.97;;;26.80;81.60;;;;;;5025416;28;20456;-95
2023/07/15 02:15:42;;;;;;;7.88;4.90;;;26.70;81.90;;;;;;5011843;28;21010;-95
2023/07/15 02:18:13;;;;;;;5.75;4.85;;;26.70;82.20;;;;;;5025863;28;20448;-95
2023/07/15 02:20:50;;;;;;;9.98;5.00;;;26.70;82.70;;;;;;4995984;28;20415;-96
2023/07/15 02:23:22;;;;;;;6.40;4.70;;;26.70;82.90;;;;;;5012060;28;20948;-94
2023/07/15 02:25:53;;;;;;;8.07;5.07;;;26.70;82.90;;;;;;4997590;28;20439;-95
2023/07/15 02:28:29;;;;;;;6.03;4.95;;;26.60;83.10;;;;;;5010769;28;20433;-94
2023/07/15 02:31:01;;;;;;;6.47;5.27;;;26.60;83.50;;;;;;5008174;28;20415;-95
2023/07/15 02:33:34;;;;;;;8.40;5.22;;;26.60;83.80;;;;;;4984300;28;20423;-95
2023/07/15 02:36:04;;;;;;;8.65;4.78;;;26.60;83.60;;;;;;5005522;28;20921;-94
2023/07/15 02:38:37;;;;;;;7.50;5.00;;;26.60;83.10;;;;;;4980054;28;20422;-94
2023/07/15 02:41:06;;;;;;;6.07;5.15;;;26.60;82.40;;;;;;4984009;28;20435;-94
2023/07/15 02:43:38;;;;;;;6.13;4.90;;;26.70;81.90;;;;;;5011061;28;20415;-95
2023/07/15 02:46:06;;;;;;;8.68;4.70;;;26.70;80.90;;;;;;4996269;28;20407;-95
2023/07/15 02:48:33;;;;;;;6.20;4.90;;;26.70;80.60;;;;;;4994815;28;21272;-95
2023/07/15 02:51:02;;;;;;;6.38;4.97;;;26.80;81.00;;;;;;4992942;28;20945;-95
2023/07/15 02:53:29;;;;;;;5.53;4.60;;;26.80;81.30;;;;;;5005047;28;20402;-95
2023/07/15 02:56:01;;;;;;;6.65;4.80;;;26.70;81.80;;;;;;5010539;28;20746;-95
2023/07/15 02:58:35;;;;;;;8.50;4.80;;;26.70;82.50;;;;;;4994452;28;20544;-95
2023/07/15 03:01:09;;;;;;;5.65;4.53;;;26.70;82.40;;;;;;4986364;28;20552;-96
2023/07/15 03:03:42;;;;;;;4.95;4.35;;;26.70;82.20;;;;;;4975432;28;21029;-95
2023/07/15 03:06:12;;;;;;;7.50;4.55;;;26.70;82.60;;;;;;4993002;28;20417;-95
2023/07/15 03:08:45;;;;;;;11.85;4.65;;;26.70;82.30;;;;;;4981755;28;20757;-95
2023/07/15 03:11:14;;;;;;;8.00;4.38;;;26.70;81.30;;;;;;5005929;28;20787;-96
2023/07/15 03:13:42;;;;;;;7.32;4.57;;;26.70;80.10;;;;;;4989287;28;20424;-96
2023/07/15 03:16:11;;;;;;;5.10;4.20;;;26.80;79.70;;;;;;4990701;28;20449;-94
2023/07/15 03:18:42;;;;;;;5.70;4.40;;;26.80;79.80;;;;;;5003284;28;20484;-96
2023/07/15 03:21:09;;;;;;;5.88;4.20;;;26.90;80.30;;;;;;4996759;28;20430;-95
2023/07/15 03:23:37;;;;;;;6.18;4.50;;;26.80;80.40;;;;;;4957386;28;20524;-95
2023/07/15 03:26:04;;;;;;;5.25;4.72;;;26.80;80.60;;;;;;4992774;28;20444;-95
2023/07/15 03:28:38;;;;;;;5.17;4.43;;;26.80;80.80;;;;;;4975489;28;20425;-95
2023/07/15 03:31:08;;;;;;;5.07;4.30;;;26.80;80.60;;;;;;4973189;28;20456;-95
2023/07/15 03:33:39;;;;;;;6.30;4.32;;;26.80;81.00;;;;;;4987467;28;21003;-95
2023/07/15 03:36:35;;;;;;;5.65;4.45;;;26.80;80.70;;;;;;4969706;28;20437;-96
2023/07/15 03:39:05;;;;;;;5.88;4.22;;;26.80;81.00;;;;;;4978150;28;20459;-94
2023/07/15 03:41:38;;;;;;;6.00;4.13;;;26.80;81.00;;;;;;4978445;28;20927;-95
2023/07/15 03:44:05;;;;;;;9.00;4.30;;;26.80;81.70;;;;;;5022887;28;20418;-95
2023/07/15 03:46:34;;;;;;;7.20;4.20;;;26.80;81.70;;;;;;4994117;28;20413;-94
2023/07/15 03:49:01;;;;;;;4.95;4.15;;;26.70;81.40;;;;;;5025706;28;20427;-94
2023/07/15 03:51:35;;;;;;;5.88;4.25;;;26.70;81.50;;;;;;4990194;28;20411;-93
2023/07/15 03:54:03;;;;;;;5.68;3.90;;;26.70;82.20;;;;;;4994473;28;20485;-94
2023/07/15 03:56:33;;;;;;;7.03;3.93;;;26.70;82.40;;;;;;4979614;28;20413;-94
2023/07/15 03:59:10;;;;;;;5.13;4.03;;;26.70;82.10;;;;;;4998984;28;20885;-93
2023/07/15 04:01:44;;;;;;;6.88;4.30;;;26.70;82.40;;;;;;5004727;28;20502;-93
2023/07/15 04:04:13;;;;;;;5.30;4.18;;;26.70;81.70;;;;;;5012220;28;20913;-95
2023/07/15 04:06:51;;;;;;;4.23;3.83;;;26.60;81.70;;;;;;5012161;28;20407;-96
2023/07/15 04:09:25;;;;;;;7.97;3.95;;;26.70;82.00;;;;;;5008066;28;20486;-95
2023/07/15 04:11:58;;;;;;;6.63;4.10;;;26.70;81.40;;;;;;4982463;28;20419;-93
2023/07/15 04:14:49;;;;;;;9.40;4.05;;;26.80;81.40;;;;;;4986320;28;20467;-94
2023/07/15 04:17:24;;;;;;;5.45;4.20;;;26.90;81.10;;;;;;5010564;28;20478;-95
2023/07/15 04:19:55;;;;;;;6.07;3.85;;;27.00;81.30;;;;;;5010401;28;20425;-95
2023/07/15 04:22:21;;;;;;;7.47;4.20;;;27.00;81.90;;;;;;4993410;28;20432;-95
2023/07/15 04:24:51;;;;;;;7.32;4.00;;;27.10;81.70;;;;;;5001171;28;20402;-95
2023/07/15 04:27:19;;;;;;;7.97;3.80;;;27.20;82.00;;;;;;4982818;28;20407;-95
2023/07/15 04:29:45;;;;;;;4.75;3.90;;;27.20;81.90;;;;;;5009370;28;20443;-95
2023/07/15 04:32:12;;;;;;;5.45;3.75;;;27.30;81.30;;;;;;4992053;28;20411;-95
2023/07/15 04:34:42;;;;;;;5.80;4.00;;;27.40;81.20;;;;;;4986029;28;20411;-95
2023/07/15 04:37:13;;;;;;;4.85;3.83;;;27.60;82.50;;;;;;4994387;28;20425;-94
2023/07/15 04:39:40;;;;;;;5.67;4.07;;;27.60;81.90;;;;;;5007706;28;20423;-95
2023/07/15 04:42:07;;;;;;;6.20;3.70;;;27.70;83.20;;;;;;5025007;28;20415;-95
2023/07/15 04:44:39;;;;;;;5.47;4.07;;;27.80;83.50;;;;;;4989521;28;20423;-93
2023/07/15 04:47:05;;;;;;;4.97;3.95;;;28.00;84.30;;;;;;4993266;28;20498;-93
2023/07/15 04:49:36;;;;;;;6.85;3.80;;;28.00;84.50;;;;;;4988768;28;20415;-94
2023/07/15 04:52:03;;;;;;;6.47;3.63;;;28.10;85.00;;;;;;4988397;28;20940;-93
2023/07/15 04:54:29;;;;;;;6.90;4.10;;;28.20;84.80;;;;;;5006113;28;20419;-93
2023/07/15 04:56:56;;;;;;;6.05;3.40;;;28.30;84.80;;;;;;4993360;28;20410;-93
2023/07/15 04:59:37;;;;;;;7.65;3.80;;;28.30;84.80;;;;;;5007968;28;20469;-96
2023/07/15 05:02:11;;;;;;;10.07;3.60;;;28.40;82.60;;;;;;4960935;28;20438;-90
2023/07/15 05:04:38;;;;;;;9.35;3.47;;;28.60;81.60;;;;;;4940789;28;20408;-95
2023/07/15 05:07:12;;;;;;;8.93;3.63;;;28.80;79.30;;;;;;4966104;28;20420;-96
2023/07/15 05:09:43;;;;;;;8.00;3.70;;;28.90;78.70;;;;;;4947327;28;20554;-95
2023/07/15 05:12:18;;;;;;;9.98;3.50;;;29.00;78.60;;;;;;4971488;28;20489;-92
2023/07/15 05:14:50;;;;;;;12.07;4.03;;;29.10;78.30;;;;;;4963899;28;20420;-96
2023/07/15 05:17:34;;;;;;;16.00;3.67;;;29.30;76.50;;;;;;4960815;28;20539;-94
2023/07/15 05:20:33;;;;;;;9.45;3.50;;;29.50;76.60;;;;;;4952332;28;20421;-95
2023/07/15 05:23:14;;;;;;;11.30;3.97;;;29.60;77.90;;;;;;4952315;28;20418;-96
2023/07/15 05:25:49;;;;;;;13.33;3.80;;;29.70;77.20;;;;;;4971072;28;20535;-96
2023/07/15 05:28:51;;;;;;;;;;;;;;;;;;;;;
2023/07/15 05:31:41;;;;;;;7.97;3.70;;;29.80;78.90;;;;;;4982085;28;20769;-96
2023/07/15 05:34:36;;;;;;;13.23;3.78;;;29.90;76.80;;;;;;4958789;28;20455;-93
2023/07/15 05:37:08;;;;;;;16.67;3.95;;;30.20;77.60;;;;;;4957382;28;20841;-95
2023/07/15 05:39:39;;;;;;;10.45;4.60;;;30.40;75.60;;;;;;4989520;28;20744;-96
2023/07/15 05:42:08;;;;;;;9.93;4.80;;;30.50;80.30;;;;;;4961320;28;20404;-96
2023/07/15 05:44:44;;;;;;;13.35;5.07;;;30.40;81.40;;;;;;4978173;28;20607;-93
2023/07/15 05:47:15;;;;;;;11.77;5.38;;;30.30;82.10;;;;;;4991399;28;20539;-93
2023/07/15 05:50:06;;;;;;;12.77;5.10;;;30.20;82.30;;;;;;4968442;28;20450;-96
2023/07/15 05:52:46;;;;;;;12.40;5.00;;;30.20;83.20;;;;;;4977434;28;20873;-95
2023/07/15 05:55:25;;;;;;;12.15;4.97;;;30.10;83.90;;;;;;4997933;28;20443;-95
2023/07/15 05:57:58;;;;;;;6.82;4.65;;;30.10;84.40;;;;;;5008854;28;20883;-96
2023/07/15 06:00:29;;;;;;;14.48;5.28;;;30.00;84.50;;;;;;4976452;28;20520;-92
2023/07/15 06:03:05;;;;;;;11.57;5.35;;;30.00;84.70;;;;;;4956968;28;20420;-93
2023/07/15 06:05:45;;;;;;;7.53;5.20;;;30.10;84.30;;;;;;5010916;28;21066;-95
2023/07/15 06:08:17;;;;;;;7.47;5.30;;;30.10;85.00;;;;;;5007490;28;20507;-95
2023/07/15 06:10:47;;;;;;;8.20;4.90;;;30.10;84.30;;;;;;5002706;28;20411;-96
2023/07/15 06:13:39;;;;;;;7.70;5.18;;;30.10;85.00;;;;;;4995386;28;20506;-95
2023/07/15 06:16:13;;;;;;;7.32;5.13;;;30.10;83.30;;;;;;5000714;28;21033;-96
2023/07/15 06:18:42;;;;;;;8.93;5.40;;;30.10;84.10;;;;;;5004535;28;20494;-95
2023/07/15 06:21:19;;;;;;;11.98;5.40;;;30.10;84.60;;;;;;4999154;28;20902;-96
2023/07/15 06:23:51;;;;;;;9.70;5.40;;;30.10;85.10;;;;;;4976689;28;20456;-93
2023/07/15 06:26:40;;;;;;;10.30;5.30;;;30.20;85.00;;;;;;4981283;28;20417;-95
2023/07/15 06:29:07;;;;;;;8.50;5.18;;;30.20;85.10;;;;;;4994446;28;20903;-96
2023/07/15 06:31:34;;;;;;;7.78;4.85;;;30.30;84.20;;;;;;4984629;28;20436;-95
2023/07/15 06:34:03;;;;;;;7.65;5.00;;;30.30;84.10;;;;;;4979227;28;20420;-96
2023/07/15 06:37:10;;;;;;;7.17;4.80;;;30.40;84.40;;;;;;4986978;28;21295;-94
2023/07/15 06:39:43;;;;;;;8.20;4.93;;;30.50;85.20;;;;;;4985088;28;20405;-95
2023/07/15 06:42:38;;;;;;;8.32;5.00;;;30.60;85.30;;;;;;4971975;28;20491;-93
2023/07/15 06:45:13;;;;;;;9.90;5.40;;;30.60;85.90;;;;;;4991611;28;20428;-94
2023/07/15 06:47:47;;;;;;;8.93;4.78;;;30.70;86.50;;;;;;4985033;28;20529;-96
2023/07/15 06:50:17;;;;;;;7.40;5.13;;;30.80;85.80;;;;;;4970295;28;20981;-95
2023/07/15 06:52:51;;;;;;;7.35;5.15;;;30.90;86.40;;;;;;4970444;28;20573;-96
2023/07/15 06:55:22;;;;;;;7.27;5.10;;;30.90;85.80;;;;;;4987481;28;20506;-95
2023/07/15 06:57:50;;;;;;;7.93;5.18;;;30.90;86.50;;;;;;4971776;28;20430;-96
2023/07/15 07:00:35;;;;;;;7.15;5.35;;;31.00;86.90;;;;;;4972364;28;20460;-96
2023/07/15 07:03:09;;;;;;;6.05;5.00;;;31.00;86.90;;;;;;4969457;28;20504;-96
2023/07/15 07:05:41;;;;;;;6.18;4.95;;;31.20;86.40;;;;;;4972853;28;20422;-95
2023/07/15 07:08:12;;;;;;;6.93;4.97;;;31.30;86.10;;;;;;4974800;28;21159;-94
2023/07/15 07:10:52;;;;;;;9.68;5.25;;;31.30;87.00;;;;;;4990200;28;20486;-96
2023/07/15 07:13:26;;;;;;;8.10;5.15;;;31.50;85.50;;;;;;4985472;28;20423;-94
2023/07/15 07:16:13;;;;;;;8.65;5.18;;;31.50;85.60;;;;;;4962912;28;20421;-95
2023/07/15 07:18:55;;;;;;;7.80;5.15;;;31.70;84.90;;;;;;4966859;28;20498;-96
2023/07/15 07:21:49;;;;;;;9.07;5.30;;;31.80;85.30;;;;;;4956957;28;20426;-93
2023/07/15 07:24:55;;;;;;;11.68;5.32;;;31.90;85.80;;;;;;4983575;28;20558;-96
2023/07/15 07:27:49;;;;;;;9.50;4.90;;;32.00;85.20;;;;;;5011077;28;20441;-95
2023/07/15 07:31:18;;;;;;;;;;;;;;;;;;;;;
2023/07/15 07:34:02;;;;;;;8.30;5.35;;;32.20;84.90;;;;;;4959436;28;20422;-95
2023/07/15 07:36:46;;;;;;;8.88;5.22;;;32.50;86.30;;;;;;5006437;28;20422;-96
2023/07/15 07:39:19;;;;;;;9.40;5.20;;;32.60;86.80;;;;;;4954311;28;20915;-96
2023/07/15 07:41:58;;;;;;;8.32;4.53;;;32.80;86.70;;;;;;4990618;28;20408;-93
2023/07/15 07:44:36;;;;;;;8.60;4.40;;;32.90;87.70;;;;;;4962304;28;20488;-95
2023/07/15 07:47:07;;;;;;;9.63;5.10;;;33.00;88.20;;;;;;4986755;28;20415;-96
2023/07/15 07:50:14;;;;;;;9.95;5.15;;;33.10;88.80;;;;;;4979944;28;20783;-96
2023/07/15 07:52:53;;;;;;;9.13;4.70;;;33.10;87.80;;;;;;4963350;28;20422;-95
2023/07/15 07:55:57;;;;;;;8.27;5.25;;;33.30;88.50;;;;;;4939614;28;20414;-94
2023/07/15 07:58:26;;;;;;;10.35;4.88;;;33.40;88.30;;;;;;4964585;28;20421;-95
2023/07/15 08:01:00;;;;;;;10.07;5.00;;;33.60;89.10;;;;;;4956788;28;20801;-95
2023/07/15 08:03:42;;;;;;;9.65;4.82;;;33.70;90.00;;;;;;4958895;28;20463;-93
2023/07/15 08:06:36;;;;;;;8.77;4.68;;;33.70;90.10;;;;;;4987155;28;20437;-95
2023/07/15 08:09:19;;;;;;;12.05;4.63;;;33.90;90.50;;;;;;4971385;28;20465;-93
2023/07/15 08:11:52;;;;;;;8.90;4.60;;;34.10;90.20;;;;;;4958958;28;20461;-96
2023/07/15 08:15:05;;;;;;;11.52;5.28;;;34.50;89.30;;;;;;4972285;28;20497;-93
2023/07/15 08:17:43;;;;;;;9.75;4.88;;;34.60;90.20;;;;;;4980762;28;20477;-95
2023/07/15 08:20:41;;;;;;;8.60;4.60;;;34.80;90.80;;;;;;4972024;28;20801;-94
2023/07/15 08:23:16;;;;;;;8.55;4.60;;;34.90;90.90;;;;;;4930327;28;20422;-96
2023/07/15 08:25:52;;;;;;;12.23;4.50;;;35.10;90.80;;;;;;4979112;28;20385;-93
2023/07/15 08:28:34;;;;;;;12.45;4.88;;;35.20;90.40;;;;;;5012592;28;20463;-95
2023/07/15 08:31:58;;;;;;;12.38;4.78;;;35.40;90.20;;;;;;5016817;28;20449;-90
2023/07/15 08:35:05;;;;;;;10.25;4.80;;;35.60;89.80;;;;;;4979963;28;20426;-96
2023/07/15 08:37:42;;;;;;;11.50;4.68;;;35.60;88.70;;;;;;4981861;28;20502;-93
2023/07/15 08:40:54;;;;;;;13.60;4.70;;;35.70;88.10;;;;;;5012539;28;20458;-94
2023/07/15 08:43:43;;;;;;;15.20;5.00;;;35.80;86.50;;;;;;4997778;28;22224;-94
2023/07/15 08:46:39;;;;;;;12.15;4.95;;;36.00;84.80;;;;;;5012629;28;20449;-94
2023/07/15 08:49:59;;;;;;;;;;;;;;;;;;;;;
2023/07/15 08:52:40;;;;;;;15.38;5.30;;;36.30;84.10;;;;;;4965564;28;20542;-94
2023/07/15 08:55:14;;;;;;;17.63;5.23;;;36.50;82.80;;;;;;4956570;28;20446;-91
2023/07/15 08:58:10;;;;;;;14.52;4.80;;;36.60;84.10;;;;;;4956262;28;20577;-95
2023/07/15 09:00:45;;;;;;;15.20;4.80;;;36.70;84.60;;;;;;4956315;28;20428;-91
2023/07/15 09:03:24;;;;;;;14.67;4.30;;;36.80;84.80;;;;;;4967747;28;21024;-92
2023/07/15 09:06:13;;;;;;;;;;;;;;;;;;;;;
2023/07/15 09:09:29;;;;;;;12.52;4.55;;;37.00;84.60;;;;;;4938273;28;20424;-93
2023/07/15 09:12:17;;;;;;;13.10;4.53;;;37.10;83.70;;;;;;4957955;28;20424;-94
2023/07/15 09:15:24;;;;;;;15.43;4.32;;;37.10;82.20;;;;;;4980344;28;20416;-93
2023/07/15 09:18:20;;;;;;;12.87;4.53;;;37.30;79.60;;;;;;4973589;28;20528;-92
2023/07/15 09:21:26;;;;;;;13.67;4.67;;;37.50;78.80;;;;;;4938929;28;20932;-93
2023/07/15 09:24:23;;;;;;;12.87;4.77;;;37.70;80.00;;;;;;4980735;28;20405;-92
2023/07/15 09:27:02;;;;;;;14.30;4.45;;;37.80;80.10;;;;;;5009722;28;20437;-91
2023/07/15 09:29:44;;;;;;;18.33;4.80;;;37.90;78.50;;;;;;5003332;28;20434;-91
2023/07/15 09:32:24;;;;;;;17.63;4.55;;;38.10;76.70;;;;;;5025357;28;21150;-93
2023/07/15 09:34:59;;;;;;;12.13;4.40;;;38.20;74.00;;;;;;4994770;28;20419;-92
2023/07/15 09:37:44;;;;;;;15.57;4.33;;;38.30;75.50;;;;;;5000669;28;20415;-93
2023/07/15 09:40:43;;;;;;;24.10;4.73;;;38.50;72.50;;;;;;5025194;28;20441;-91
2023/07/15 09:43:25;;;;;;;19.00;4.80;;;38.60;69.70;;;;;;4987432;28;20399;-95
2023/07/15 09:46:01;;;;;;;19.60;4.50;;;38.70;68.30;;;;;;4971689;28;20460;-94
2023/07/15 09:48:42;;;;;;;13.27;4.22;;;38.80;65.20;;;;;;4968843;28;20813;-93
2023/07/15 09:51:27;;;;;;;11.52;4.18;;;39.00;67.70;;;;;;4980233;28;20497;-93
2023/07/15 09:54:12;;;;;;;22.15;4.80;;;39.30;67.90;;;;;;4957304;28;20412;-91
2023/07/15 09:56:49;;;;;;;13.23;4.47;;;39.40;68.10;;;;;;4983005;28;20415;-94
2023/07/15 10:00:07;;;;;;;25.15;5.10;;;39.50;63.80;;;;;;4961993;28;20418;-95
2023/07/15 10:03:07;;;;;;;17.55;4.47;;;39.70;66.40;;;;;;4971113;28;20472;-94
2023/07/15 10:05:52;;;;;;;;;;;;;;;;;;;;;
2023/07/15 10:08:37;;;;;;;16.70;4.53;;;39.90;66.90;;;;;;4971716;28;21251;-93
2023/07/15 10:11:09;;;;;;;20.30;5.03;;;40.00;63.20;;;;;;4954719;28;20428;-93
2023/07/15 10:13:43;;;;;;;28.95;5.75;;;40.10;65.60;;;;;;4956641;28;20418;-93
2023/07/15 10:16:18;;;;;;;10.17;4.47;;;40.00;74.10;;;;;;4980448;28;20411;-92
2023/07/15 10:19:01;;;;;;;15.20;4.60;;;39.60;81.40;;;;;;4972736;28;20416;-91
2023/07/15 10:21:44;;;;;;;12.65;4.80;;;39.10;81.80;;;;;;4985209;28;20423;-93
2023/07/15 10:24:46;;;;;;;11.82;5.10;;;38.70;85.30;;;;;;4997718;28;20449;-91
2023/07/15 10:27:47;;;;;;;12.98;5.10;;;38.30;89.80;;;;;;5024341;28;20436;-92
2023/07/15 10:30:31;;;;;;;14.52;4.85;;;37.90;91.80;;;;;;4987583;28;20193;-93
2023/07/15 10:44:45;;;;;;;13.45;4.88;;;36.80;95.70;;;;;;5012934;28;20188;-93
2023/07/15 10:47:22;;;;;;;15.55;4.68;;;36.70;93.40;;;;;;5021823;28;20185;-93
2023/07/15 10:50:13;;;;;;;10.50;4.70;;;36.80;94.30;;;;;;5010920;28;20219;-92
2023/07/15 10:52:53;;;;;;;8.63;4.50;;;36.60;94.20;;;;;;4996373;28;20216;-93
2023/07/15 10:55:21;;;;;;;13.48;5.40;;;36.70;93.20;;;;;;4996117;28;20274;-90
2023/07/15 10:58:32;;;;;;;9.52;5.18;;;36.80;93.00;;;;;;4995773;28;20192;-92
2023/07/15 11:01:15;;;;;;;10.48;4.97;;;36.80;92.90;;;;;;5009230;28;20227;-94
2023/07/15 11:03:47;;;;;;;15.35;5.13;;;36.70;94.50;;;;;;5005653;28;20410;-95
2023/07/15 11:06:14;;;;;;;9.32;4.82;;;36.60;93.90;;;;;;4978709;28;20659;-90
2023/07/15 11:08:47;;;;;;;9.43;5.18;;;36.40;96.00;;;;;;4996913;28;20286;-94
2023/07/15 11:11:17;;;;;;;10.50;5.72;;;36.20;97.00;;;;;;5009943;28;20211;-90
2023/07/15 11:14:32;;;;;;;8.77;4.72;;;36.00;97.80;;;;;;5024768;28;20239;-91
2023/07/15 11:20:25;;;;;;;10.57;5.85;;;35.70;99.30;;;;;;5021441;28;20887;-91
2023/07/15 11:23:03;;;;;;;9.10;5.22;;;35.40;99.90;;;;;;5012940;28;20200;-95
2023/07/15 11:25:57;;;;;;;;;;;;;;;;;;;;;
2023/07/15 11:28:29;;;;;;;10.13;5.35;;;35.30;99.90;;;;;;4983784;28;20192;-92
2023/07/15 11:31:09;;;;;;;12.65;5.55;;;35.30;99.90;;;;;;4994509;28;20358;-94
2023/07/15 11:33:40;;;;;;;12.27;5.63;;;35.20;99.90;;;;;;4983692;28;20227;-96
2023/07/15 11:36:21;;;;;;;9.50;5.20;;;35.20;99.90;;;;;;5011252;28;20211;-93
2023/07/15 11:39:10;;;;;;;8.05;5.55;;;35.30;99.90;;;;;;5033946;28;20212;-91
2023/07/15 11:41:50;;;;;;;14.77;5.90;;;35.30;99.90;;;;;;4996047;28;20520;-95
2023/07/15 11:44:25;;;;;;;7.70;5.72;;;35.10;99.90;;;;;;4999371;28;20268;-94
2023/07/15 11:47:01;;;;;;;10.90;5.68;;;35.00;99.90;;;;;;5015852;28;20249;-91
2023/07/15 11:49:32;;;;;;;9.13;5.18;;;34.80;99.90;;;;;;5015571;28;20192;-95
2023/07/15 11:51:59;;;;;;;12.70;5.03;;;34.80;99.90;;;;;;5007916;28;20180;-90
2023/07/15 11:54:45;;;;;;;6.28;5.07;;;34.80;99.90;;;;;;4984092;28;20200;-94
2023/07/15 11:57:47;;;;;;;9.95;5.25;;;34.80;99.90;;;;;;4995836;28;20188;-92
2023/07/15 12:01:01;;;;;;;9.43;5.45;;;34.80;99.90;;;;;;5033263;28;20212;-90
2023/07/15 12:03:39;;;;;;;9.43;5.53;;;34.70;99.90;;;;;;5036024;28;20195;-94
2023/07/15 12:06:43;;;;;;;13.85;5.22;;;34.70;99.70;;;;;;5015347;28;20282;-94
2023/07/15 12:09:19;;;;;;;8.15;5.18;;;34.80;99.50;;;;;;5010360;28;20574;-93
2023/07/15 12:11:46;;;;;;;9.18;4.82;;;34.80;99.50;;;;;;5013995;28;20260;-95
2023/07/15 12:14:30;;;;;;;8.80;4.97;;;34.70;99.00;;;;;;4996210;28;20241;-94
2023/07/15 12:17:02;;;;;;;16.58;5.35;;;34.70;99.00;;;;;;5000399;28;20715;-94
2023/07/15 12:19:45;;;;;;;8.75;4.97;;;34.70;98.70;;;;;;4998474;28;20212;-93
2023/07/15 12:22:17;;;;;;;7.78;4.80;;;34.60;97.90;;;;;;5011141;28;20198;-94
2023/07/15 12:24:49;;;;;;;11.27;4.88;;;34.60;97.60;;;;;;5028973;28;20189;-94
2023/07/15 12:27:33;;;;;;;6.93;4.38;;;34.70;97.10;;;;;;5014418;28;20180;-94
2023/07/15 12:30:12;;;;;;;11.75;4.38;;;34.70;96.30;;;;;;4997092;28;20288;-92
2023/07/15 12:32:48;;;;;;;11.57;5.20;;;34.70;96.10;;;;;;5013803;28;20188;-90
2023/07/15 12:35:29;;;;;;;8.55;4.82;;;34.70;95.80;;;;;;5008471;28;20200;-92
2023/07/15 12:38:12;;;;;;;10.45;5.05;;;34.70;95.30;;;;;;5023131;28;20195;-92
2023/07/15 12:40:43;;;;;;;11.23;4.70;;;34.80;94.70;;;;;;4995822;28;20902;-95
2023/07/15 12:43:26;;;;;;;14.90;4.90;;;34.70;94.40;;;;;;5010957;28;20222;-93
2023/07/15 12:45:55;;;;;;;9.15;4.47;;;34.70;94.60;;;;;;4994372;28;20188;-92
2023/07/15 12:48:28;;;;;;;6.35;4.53;;;34.70;94.30;;;;;;5009233;28;20657;-90
2023/07/15 12:51:01;;;;;;;16.98;5.00;;;34.70;94.30;;;;;;4992467;28;20636;-94
2023/07/15 12:53:37;;;;;;;8.68;4.68;;;34.70;94.40;;;;;;4979834;28;20307;-94
2023/07/15 12:57:00;;;;;;;8.35;4.40;;;34.70;94.40;;;;;;4972794;28;20429;-93
2023/07/15 12:59:37;;;;;;;7.63;4.30;;;34.70;93.80;;;;;;4991756;28;20246;-91
2023/07/15 13:02:15;;;;;;;8.73;4.80;;;34.70;94.00;;;;;;4989949;28;20450;-91
2023/07/15 13:04:54;;;;;;;11.68;5.10;;;34.80;93.90;;;;;;4977325;28;20237;-92
2023/07/15 13:07:29;;;;;;;9.60;4.57;;;34.90;93.60;;;;;;5006846;28;20269;-92
2023/07/15 13:10:01;;;;;;;12.25;4.90;;;34.90;92.70;;;;;;5005067;28;20274;-94
2023/07/15 13:12:40;;;;;;;11.40;4.30;;;34.90;92.40;;;;;;4993405;28;20192;-95
2023/07/15 13:15:22;;;;;;;9.77;4.40;;;34.90;92.30;;;;;;4975332;28;20192;-94
2023/07/15 13:18:12;;;;;;;10.70;4.55;;;34.90;92.30;;;;;;5005161;28;20204;-91
2023/07/15 13:20:50;;;;;;;8.77;4.43;;;34.90;92.00;;;;;;4988992;28;20212;-91
2023/07/15 13:23:17;;;;;;;10.63;4.80;;;34.80;91.80;;;;;;4983905;28;20199;-90
2023/07/15 13:25:44;;;;;;;10.25;4.28;;;34.90;91.80;;;;;;4977109;28;20660;-96
2023/07/15 13:28:23;;;;;;;18.38;4.78;;;34.90;91.60;;;;;;4967956;28;20803;-93
2023/07/15 13:30:56;;;;;;;9.18;4.45;;;35.00;91.60;;;;;;4987915;28;20691;-86
2023/07/15 13:33:40;;;;;;;12.40;4.68;;;35.00;91.40;;;;;;4990323;28;20738;-93
2023/07/15 13:39:45;;;;;;;8.32;4.55;;;35.00;91.50;;;;;;5020140;28;20192;-94
2023/07/15 13:42:30;;;;;;;6.40;4.30;;;35.00;90.90;;;;;;5009991;28;20168;-93
2023/07/15 13:45:03;;;;;;;12.02;4.72;;;35.00;91.00;;;;;;5006222;28;20183;-90
2023/07/15 13:47:31;;;;;;;10.15;4.68;;;35.00;90.60;;;;;;5007662;28;20176;-94
2023/07/15 14:08:50;;;;;;;13.48;3.95;;;34.90;87.70;;;;;;5030196;28;20188;-91
2023/07/15 14:11:42;;;;;;;12.95;4.10;;;34.90;87.30;;;;;;4995768;28;20252;-96
2023/07/15 14:14:23;;;;;;;12.20;3.95;;;34.80;86.10;;;;;;5005729;28;20205;-90
2023/07/15 14:17:02;;;;;;;16.70;4.50;;;34.90;86.80;;;;;;4990403;28;20226;-96
2023/07/15 14:19:31;;;;;;;9.25;4.30;;;34.80;86.70;;;;;;4994371;28;20294;-90
2023/07/15 14:21:58;;;;;;;7.60;3.85;;;34.90;86.00;;;;;;4972283;28;20197;-94
2023/07/15 14:24:34;;;;;;;15.25;4.40;;;34.80;85.30;;;;;;4991166;28;20200;-94